If you wish to contribute or participate in the discussions about articles you are invited to join SKYbrary as a registered user

 Actions

Artigas

From SKYbrary Wiki

SUAG
Airport
ICAO: SUAG
Summary
Name Artigas
Region South America and Caribbean
Territory Uruguay UY.gif
Location Artigas
Serving
Coordinates 30° 24' 3.24" S, 56° 30' 27.90" W
Runways
Designator Length Width Surface ROPS
11/29 1275 m4,183.071 ft
0 m0 ft
UNK /


METAR
Observation SUAG 101300Z 09003KT 9999 EW026 21/16 Q1015
Station Artigas
Date/Time 10 April 2019 13:00:00
Wind direction 90°
Wind speed 03 kts
Lowest cloud amount n/a
Temperature 21°C
Dew point 16°C
Humidity 73%
QNH 1015 hPa
Weather condition n/a

Artigas International Airport

ICAO: SUAG IATA: ATI

Description

Artigas International Airport is the airport serving Artigas, Uruguay.

Climatology

(Köppen climate classification Cfa)

Maps

Terrain

Loading map...

Airport Layout

Loading map...



Accidents & Serious Incidents at or in vicinity of SUAG

None on SKYbrary